sensor_id;sensor_type;location;lat;lon;timestamp;P1;durP1;ratioP1;P2;durP2;ratioP2
12155;SDS011;6141;49.092;8.516;2023-04-19T00:01:20;12.50;;;10.67;;
12155;SDS011;6141;49.092;8.516;2023-04-19T00:03:50;12.97;;;10.77;;
12155;SDS011;6141;49.092;8.516;2023-04-19T00:06:19;11.87;;;10.67;;
12155;SDS011;6141;49.092;8.516;2023-04-19T00:08:47;12.83;;;10.63;;
12155;SDS011;6141;49.092;8.516;2023-04-19T00:11:17;11.67;;;10.47;;
12155;SDS011;6141;49.092;8.516;2023-04-19T00:13:45;11.53;;;10.23;;
12155;SDS011;6141;49.092;8.516;2023-04-19T00:16:16;11.43;;;9.93;;
12155;SDS011;6141;49.092;8.516;2023-04-19T00:18:45;11.80;;;10.27;;
12155;SDS011;6141;49.092;8.516;2023-04-19T00:21:14;11.73;;;10.37;;
12155;SDS011;6141;49.092;8.516;2023-04-19T00:23:42;12.40;;;10.97;;
12155;SDS011;6141;49.092;8.516;2023-04-19T00:26:10;13.37;;;11.20;;
12155;SDS011;6141;49.092;8.516;2023-04-19T00:28:46;12.50;;;11.13;;
12155;SDS011;6141;49.092;8.516;2023-04-19T00:31:14;12.07;;;10.30;;
12155;SDS011;6141;49.092;8.516;2023-04-19T00:33:45;12.37;;;11.07;;
12155;SDS011;6141;49.092;8.516;2023-04-19T00:36:13;11.77;;;10.57;;
12155;SDS011;6141;49.092;8.516;2023-04-19T00:38:42;12.03;;;10.33;;
12155;SDS011;6141;49.092;8.516;2023-04-19T00:41:10;11.90;;;10.57;;
12155;SDS011;6141;49.092;8.516;2023-04-19T00:43:39;13.13;;;11.73;;
12155;SDS011;6141;49.092;8.516;2023-04-19T00:46:07;12.77;;;11.57;;
12155;SDS011;6141;49.092;8.516;2023-04-19T00:48:37;13.37;;;12.00;;
12155;SDS011;6141;49.092;8.516;2023-04-19T00:51:07;12.33;;;11.03;;
12155;SDS011;6141;49.092;8.516;2023-04-19T00:53:37;12.90;;;11.70;;
12155;SDS011;6141;49.092;8.516;2023-04-19T00:56:07;12.73;;;11.43;;
12155;SDS011;6141;49.092;8.516;2023-04-19T00:58:37;12.03;;;10.83;;
12155;SDS011;6141;49.092;8.516;2023-04-19T01:01:08;11.40;;;10.17;;
12155;SDS011;6141;49.092;8.516;2023-04-19T01:03:36;12.13;;;10.70;;
12155;SDS011;6141;49.092;8.516;2023-04-19T01:06:05;12.30;;;11.00;;
12155;SDS011;6141;49.092;8.516;2023-04-19T01:08:36;13.13;;;10.80;;
12155;SDS011;6141;49.092;8.516;2023-04-19T01:11:06;14.37;;;12.87;;
12155;SDS011;6141;49.092;8.516;2023-04-19T01:13:36;12.27;;;10.97;;
12155;SDS011;6141;49.092;8.516;2023-04-19T01:16:05;12.33;;;11.03;;
12155;SDS011;6141;49.092;8.516;2023-04-19T01:18:34;13.10;;;11.60;;
12155;SDS011;6141;49.092;8.516;2023-04-19T01:21:04;13.07;;;11.67;;
12155;SDS011;6141;49.092;8.516;2023-04-19T01:23:35;14.63;;;12.37;;
12155;SDS011;6141;49.092;8.516;2023-04-19T01:26:04;12.53;;;11.23;;
12155;SDS011;6141;49.092;8.516;2023-04-19T01:28:33;14.07;;;11.73;;
12155;SDS011;6141;49.092;8.516;2023-04-19T01:31:02;12.77;;;11.47;;
12155;SDS011;6141;49.092;8.516;2023-04-19T01:33:32;14.37;;;12.00;;
12155;SDS011;6141;49.092;8.516;2023-04-19T01:36:01;13.00;;;11.60;;
12155;SDS011;6141;49.092;8.516;2023-04-19T01:38:30;14.53;;;12.47;;
12155;SDS011;6141;49.092;8.516;2023-04-19T01:40:59;14.17;;;12.73;;
12155;SDS011;6141;49.092;8.516;2023-04-19T01:43:30;12.57;;;11.27;;
12155;SDS011;6141;49.092;8.516;2023-04-19T01:45:58;15.20;;;12.73;;
12155;SDS011;6141;49.092;8.516;2023-04-19T01:48:27;13.10;;;11.63;;
12155;SDS011;6141;49.092;8.516;2023-04-19T01:50:56;12.67;;;11.37;;
12155;SDS011;6141;49.092;8.516;2023-04-19T01:53:26;12.23;;;10.93;;
12155;SDS011;6141;49.092;8.516;2023-04-19T01:55:54;12.47;;;10.80;;
12155;SDS011;6141;49.092;8.516;2023-04-19T01:58:26;12.73;;;11.43;;
12155;SDS011;6141;49.092;8.516;2023-04-19T02:00:55;13.83;;;11.47;;
12155;SDS011;6141;49.092;8.516;2023-04-19T02:03:23;12.27;;;10.97;;
12155;SDS011;6141;49.092;8.516;2023-04-19T02:05:52;12.73;;;11.33;;
12155;SDS011;6141;49.092;8.516;2023-04-19T02:08:21;11.73;;;10.43;;
12155;SDS011;6141;49.092;8.516;2023-04-19T02:10:50;12.17;;;10.70;;
12155;SDS011;6141;49.092;8.516;2023-04-19T02:13:18;12.00;;;10.70;;
12155;SDS011;6141;49.092;8.516;2023-04-19T02:15:55;13.47;;;10.80;;
12155;SDS011;6141;49.092;8.516;2023-04-19T02:18:24;12.63;;;10.40;;
12155;SDS011;6141;49.092;8.516;2023-04-19T02:20:56;12.07;;;10.87;;
12155;SDS011;6141;49.092;8.516;2023-04-19T02:23:25;11.40;;;10.20;;
12155;SDS011;6141;49.092;8.516;2023-04-19T02:26:03;11.60;;;10.33;;
12155;SDS011;6141;49.092;8.516;2023-04-19T02:28:41;13.07;;;11.73;;
12155;SDS011;6141;49.092;8.516;2023-04-19T02:31:13;13.13;;;10.90;;
12155;SDS011;6141;49.092;8.516;2023-04-19T02:33:50;11.40;;;9.97;;
12155;SDS011;6141;49.092;8.516;2023-04-19T02:36:28;11.47;;;10.37;;
12155;SDS011;6141;49.092;8.516;2023-04-19T02:38:57;12.10;;;10.80;;
12155;SDS011;6141;49.092;8.516;2023-04-19T02:41:25;13.03;;;10.83;;
12155;SDS011;6141;49.092;8.516;2023-04-19T02:43:54;11.70;;;10.43;;
12155;SDS011;6141;49.092;8.516;2023-04-19T02:46:24;11.87;;;10.67;;
12155;SDS011;6141;49.092;8.516;2023-04-19T02:48:53;12.93;;;11.27;;
12155;SDS011;6141;49.092;8.516;2023-04-19T02:51:21;11.00;;;9.33;;
12155;SDS011;6141;49.092;8.516;2023-04-19T02:53:50;11.30;;;10.17;;
12155;SDS011;6141;49.092;8.516;2023-04-19T02:56:18;11.40;;;10.30;;
12155;SDS011;6141;49.092;8.516;2023-04-19T02:58:47;11.83;;;10.63;;
12155;SDS011;6141;49.092;8.516;2023-04-19T03:01:16;11.20;;;9.90;;
12155;SDS011;6141;49.092;8.516;2023-04-19T03:03:46;11.37;;;10.17;;
12155;SDS011;6141;49.092;8.516;2023-04-19T03:06:14;11.53;;;10.10;;
12155;SDS011;6141;49.092;8.516;2023-04-19T03:08:44;11.43;;;9.93;;
12155;SDS011;6141;49.092;8.516;2023-04-19T03:11:14;11.33;;;10.23;;
12155;SDS011;6141;49.092;8.516;2023-04-19T03:13:43;11.27;;;10.00;;
12155;SDS011;6141;49.092;8.516;2023-04-19T03:16:13;12.10;;;10.00;;
12155;SDS011;6141;49.092;8.516;2023-04-19T03:18:43;11.33;;;10.23;;
12155;SDS011;6141;49.092;8.516;2023-04-19T03:21:17;10.33;;;9.23;;
12155;SDS011;6141;49.092;8.516;2023-04-19T03:23:51;11.37;;;10.27;;
12155;SDS011;6141;49.092;8.516;2023-04-19T03:26:19;9.83;;;8.83;;
12155;SDS011;6141;49.092;8.516;2023-04-19T03:28:51;10.27;;;9.20;;
12155;SDS011;6141;49.092;8.516;2023-04-19T03:31:20;9.97;;;8.90;;
12155;SDS011;6141;49.092;8.516;2023-04-19T03:33:50;10.60;;;9.50;;
12155;SDS011;6141;49.092;8.516;2023-04-19T03:36:25;10.67;;;9.17;;
12155;SDS011;6141;49.092;8.516;2023-04-19T03:38:53;9.80;;;8.80;;
12155;SDS011;6141;49.092;8.516;2023-04-19T03:41:22;12.33;;;8.73;;
12155;SDS011;6141;49.092;8.516;2023-04-19T03:44:03;9.80;;;8.80;;
12155;SDS011;6141;49.092;8.516;2023-04-19T03:46:33;8.47;;;7.57;;
12155;SDS011;6141;49.092;8.516;2023-04-19T03:49:02;9.13;;;8.17;;
12155;SDS011;6141;49.092;8.516;2023-04-19T03:51:33;9.00;;;8.10;;
12155;SDS011;6141;49.092;8.516;2023-04-19T03:54:02;9.70;;;8.70;;
12155;SDS011;6141;49.092;8.516;2023-04-19T03:56:31;10.10;;;8.60;;
12155;SDS011;6141;49.092;8.516;2023-04-19T03:58:59;9.50;;;8.60;;
12155;SDS011;6141;49.092;8.516;2023-04-19T04:01:30;9.77;;;8.60;;
12155;SDS011;6141;49.092;8.516;2023-04-19T04:04:01;9.20;;;8.30;;
12155;SDS011;6141;49.092;8.516;2023-04-19T04:06:31;8.27;;;7.33;;
12155;SDS011;6141;49.092;8.516;2023-04-19T04:09:01;9.73;;;8.43;;
12155;SDS011;6141;49.092;8.516;2023-04-19T04:11:30;9.97;;;8.97;;
12155;SDS011;6141;49.092;8.516;2023-04-19T04:13:59;9.43;;;8.43;;
12155;SDS011;6141;49.092;8.516;2023-04-19T04:16:32;9.47;;;8.50;;
12155;SDS011;6141;49.092;8.516;2023-04-19T04:19:00;9.23;;;8.17;;
12155;SDS011;6141;49.092;8.516;2023-04-19T04:21:32;12.07;;;8.67;;
12155;SDS011;6141;49.092;8.516;2023-04-19T04:24:04;9.20;;;8.23;;
12155;SDS011;6141;49.092;8.516;2023-04-19T04:26:39;8.97;;;8.07;;
12155;SDS011;6141;49.092;8.516;2023-04-19T04:29:17;9.23;;;8.30;;
12155;SDS011;6141;49.092;8.516;2023-04-19T04:31:48;9.47;;;8.47;;
12155;SDS011;6141;49.092;8.516;2023-04-19T04:34:20;8.20;;;7.33;;
12155;SDS011;6141;49.092;8.516;2023-04-19T04:36:57;8.40;;;7.60;;
12155;SDS011;6141;49.092;8.516;2023-04-19T04:39:27;8.70;;;7.80;;
12155;SDS011;6141;49.092;8.516;2023-04-19T04:41:56;9.60;;;8.60;;
12155;SDS011;6141;49.092;8.516;2023-04-19T04:44:25;9.10;;;8.27;;
12155;SDS011;6141;49.092;8.516;2023-04-19T04:46:54;8.70;;;7.83;;
12155;SDS011;6141;49.092;8.516;2023-04-19T04:49:26;8.90;;;7.70;;
12155;SDS011;6141;49.092;8.516;2023-04-19T04:51:57;8.70;;;7.80;;
12155;SDS011;6141;49.092;8.516;2023-04-19T04:54:29;9.30;;;8.40;;
12155;SDS011;6141;49.092;8.516;2023-04-19T04:56:58;9.87;;;8.70;;
12155;SDS011;6141;49.092;8.516;2023-04-19T04:59:28;9.97;;;8.97;;
12155;SDS011;6141;49.092;8.516;2023-04-19T05:01:57;10.03;;;9.03;;
12155;SDS011;6141;49.092;8.516;2023-04-19T05:04:28;10.03;;;8.67;;
12155;SDS011;6141;49.092;8.516;2023-04-19T05:06:56;9.67;;;8.77;;
12155;SDS011;6141;49.092;8.516;2023-04-19T05:09:26;10.07;;;9.07;;
12155;SDS011;6141;49.092;8.516;2023-04-19T05:11:57;9.90;;;9.00;;
12155;SDS011;6141;49.092;8.516;2023-04-19T05:14:25;10.77;;;9.23;;
12155;SDS011;6141;49.092;8.516;2023-04-19T05:16:55;11.23;;;9.47;;
12155;SDS011;6141;49.092;8.516;2023-04-19T05:19:23;9.80;;;8.80;;
12155;SDS011;6141;49.092;8.516;2023-04-19T05:21:58;9.63;;;8.63;;
12155;SDS011;6141;49.092;8.516;2023-04-19T05:24:27;10.03;;;9.03;;
12155;SDS011;6141;49.092;8.516;2023-04-19T05:27:00;9.90;;;8.93;;
12155;SDS011;6141;49.092;8.516;2023-04-19T05:29:30;9.67;;;8.63;;
12155;SDS011;6141;49.092;8.516;2023-04-19T05:31:59;10.27;;;9.27;;
12155;SDS011;6141;49.092;8.516;2023-04-19T05:34:30;10.00;;;9.00;;
12155;SDS011;6141;49.092;8.516;2023-04-19T05:37:00;9.57;;;8.57;;
12155;SDS011;6141;49.092;8.516;2023-04-19T05:39:29;10.13;;;8.90;;
12155;SDS011;6141;49.092;8.516;2023-04-19T05:41:58;9.30;;;8.30;;
12155;SDS011;6141;49.092;8.516;2023-04-19T05:44:29;11.20;;;9.33;;
12155;SDS011;6141;49.092;8.516;2023-04-19T05:46:58;10.77;;;8.93;;
12155;SDS011;6141;49.092;8.516;2023-04-19T05:49:50;10.63;;;8.93;;
12155;SDS011;6141;49.092;8.516;2023-04-19T05:52:25;9.27;;;8.37;;
12155;SDS011;6141;49.092;8.516;2023-04-19T05:54:57;9.03;;;8.13;;
12155;SDS011;6141;49.092;8.516;2023-04-19T05:57:27;10.67;;;9.17;;
12155;SDS011;6141;49.092;8.516;2023-04-19T05:59:56;9.23;;;8.33;;
12155;SDS011;6141;49.092;8.516;2023-04-19T06:02:38;9.83;;;8.83;;
12155;SDS011;6141;49.092;8.516;2023-04-19T06:05:12;9.23;;;8.30;;
12155;SDS011;6141;49.092;8.516;2023-04-19T06:07:41;9.53;;;8.63;;
12155;SDS011;6141;49.092;8.516;2023-04-19T06:10:25;10.20;;;9.20;;
12155;SDS011;6141;49.092;8.516;2023-04-19T06:13:15;10.23;;;9.23;;
12155;SDS011;6141;49.092;8.516;2023-04-19T06:15:44;9.50;;;8.60;;
12155;SDS011;6141;49.092;8.516;2023-04-19T06:18:13;9.23;;;8.33;;
12155;SDS011;6141;49.092;8.516;2023-04-19T06:20:45;10.23;;;9.13;;
12155;SDS011;6141;49.092;8.516;2023-04-19T06:23:13;8.87;;;7.97;;
12155;SDS011;6141;49.092;8.516;2023-04-19T06:25:44;9.57;;;7.80;;
12155;SDS011;6141;49.092;8.516;2023-04-19T06:28:25;8.80;;;7.90;;
12155;SDS011;6141;49.092;8.516;2023-04-19T06:30:54;9.67;;;8.37;;
12155;SDS011;6141;49.092;8.516;2023-04-19T06:33:22;9.67;;;8.10;;
12155;SDS011;6141;49.092;8.516;2023-04-19T06:35:51;9.03;;;8.13;;
12155;SDS011;6141;49.092;8.516;2023-04-19T06:38:20;8.47;;;7.67;;
12155;SDS011;6141;49.092;8.516;2023-04-19T06:40:50;10.63;;;9.20;;
12155;SDS011;6141;49.092;8.516;2023-04-19T06:43:19;9.43;;;8.43;;
12155;SDS011;6141;49.092;8.516;2023-04-19T06:45:56;8.97;;;8.07;;
12155;SDS011;6141;49.092;8.516;2023-04-19T06:48:24;9.67;;;8.63;;
12155;SDS011;6141;49.092;8.516;2023-04-19T06:50:55;10.83;;;7.70;;
12155;SDS011;6141;49.092;8.516;2023-04-19T06:53:25;8.83;;;7.93;;
12155;SDS011;6141;49.092;8.516;2023-04-19T06:58:25;10.20;;;9.20;;
12155;SDS011;6141;49.092;8.516;2023-04-19T07:00:55;9.67;;;8.60;;
12155;SDS011;6141;49.092;8.516;2023-04-19T07:03:23;9.60;;;8.40;;
12155;SDS011;6141;49.092;8.516;2023-04-19T07:05:55;9.10;;;8.20;;
12155;SDS011;6141;49.092;8.516;2023-04-19T07:08:24;9.70;;;8.67;;
12155;SDS011;6141;49.092;8.516;2023-04-19T07:11:08;9.30;;;8.30;;
12155;SDS011;6141;49.092;8.516;2023-04-19T07:13:37;8.67;;;7.47;;
12155;SDS011;6141;49.092;8.516;2023-04-19T07:16:07;8.73;;;7.93;;
12155;SDS011;6141;49.092;8.516;2023-04-19T07:18:36;8.67;;;7.77;;
12155;SDS011;6141;49.092;8.516;2023-04-19T07:21:04;9.50;;;8.13;;
12155;SDS011;6141;49.092;8.516;2023-04-19T07:23:43;9.63;;;8.63;;
12155;SDS011;6141;49.092;8.516;2023-04-19T07:26:13;7.90;;;7.20;;
12155;SDS011;6141;49.092;8.516;2023-04-19T07:28:42;9.53;;;7.23;;
12155;SDS011;6141;49.092;8.516;2023-04-19T07:31:17;7.83;;;7.03;;
12155;SDS011;6141;49.092;8.516;2023-04-19T07:33:47;8.67;;;7.77;;
12155;SDS011;6141;49.092;8.516;2023-04-19T07:36:16;7.60;;;6.90;;
12155;SDS011;6141;49.092;8.516;2023-04-19T07:38:44;8.77;;;7.87;;
12155;SDS011;6141;49.092;8.516;2023-04-19T07:41:13;7.90;;;7.10;;
12155;SDS011;6141;49.092;8.516;2023-04-19T07:43:43;9.00;;;7.90;;
12155;SDS011;6141;49.092;8.516;2023-04-19T07:46:13;8.93;;;8.03;;
12155;SDS011;6141;49.092;8.516;2023-04-19T07:48:43;7.83;;;7.03;;
12155;SDS011;6141;49.092;8.516;2023-04-19T07:51:13;8.40;;;7.60;;
12155;SDS011;6141;49.092;8.516;2023-04-19T07:53:46;8.00;;;7.30;;
12155;SDS011;6141;49.092;8.516;2023-04-19T07:56:22;8.47;;;7.67;;
12155;SDS011;6141;49.092;8.516;2023-04-19T07:58:52;9.03;;;7.80;;
12155;SDS011;6141;49.092;8.516;2023-04-19T08:01:34;7.17;;;6.57;;
12155;SDS011;6141;49.092;8.516;2023-04-19T08:04:05;8.73;;;7.83;;
12155;SDS011;6141;49.092;8.516;2023-04-19T08:06:36;10.50;;;8.17;;
12155;SDS011;6141;49.092;8.516;2023-04-19T08:09:07;8.90;;;8.00;;
12155;SDS011;6141;49.092;8.516;2023-04-19T08:11:36;10.20;;;9.20;;
12155;SDS011;6141;49.092;8.516;2023-04-19T08:14:04;8.57;;;7.70;;
12155;SDS011;6141;49.092;8.516;2023-04-19T08:16:52;9.47;;;7.30;;
12155;SDS011;6141;49.092;8.516;2023-04-19T08:19:27;9.30;;;7.67;;
12155;SDS011;6141;49.092;8.516;2023-04-19T08:21:56;8.73;;;7.83;;
12155;SDS011;6141;49.092;8.516;2023-04-19T08:24:24;8.40;;;7.57;;
12155;SDS011;6141;49.092;8.516;2023-04-19T08:26:53;9.47;;;7.60;;
12155;SDS011;6141;49.092;8.516;2023-04-19T08:29:24;8.70;;;7.80;;
12155;SDS011;6141;49.092;8.516;2023-04-19T08:31:53;8.77;;;7.87;;
12155;SDS011;6141;49.092;8.516;2023-04-19T08:34:22;8.00;;;7.03;;
12155;SDS011;6141;49.092;8.516;2023-04-19T08:36:52;9.70;;;7.70;;
12155;SDS011;6141;49.092;8.516;2023-04-19T08:39:29;9.17;;;7.80;;
12155;SDS011;6141;49.092;8.516;2023-04-19T08:42:01;8.53;;;7.63;;
12155;SDS011;6141;49.092;8.516;2023-04-19T08:44:43;7.80;;;7.10;;
12155;SDS011;6141;49.092;8.516;2023-04-19T08:47:34;9.93;;;7.77;;
12155;SDS011;6141;49.092;8.516;2023-04-19T08:50:22;9.00;;;8.20;;
12155;SDS011;6141;49.092;8.516;2023-04-19T08:53:01;10.33;;;8.10;;
12155;SDS011;6141;49.092;8.516;2023-04-19T08:55:49;7.93;;;7.23;;
12155;SDS011;6141;49.092;8.516;2023-04-19T08:58:39;9.40;;;8.43;;
12155;SDS011;6141;49.092;8.516;2023-04-19T09:01:11;9.47;;;8.30;;
12155;SDS011;6141;49.092;8.516;2023-04-19T09:03:58;8.63;;;7.73;;
12155;SDS011;6141;49.092;8.516;2023-04-19T09:06:47;9.47;;;8.03;;
12155;SDS011;6141;49.092;8.516;2023-04-19T09:09:18;9.27;;;8.33;;
12155;SDS011;6141;49.092;8.516;2023-04-19T09:11:51;9.37;;;8.37;;
12155;SDS011;6141;49.092;8.516;2023-04-19T09:14:20;9.80;;;8.33;;
12155;SDS011;6141;49.092;8.516;2023-04-19T09:16:50;9.27;;;8.33;;
12155;SDS011;6141;49.092;8.516;2023-04-19T09:19:18;10.60;;;9.50;;
12155;SDS011;6141;49.092;8.516;2023-04-19T09:21:51;11.30;;;10.13;;
12155;SDS011;6141;49.092;8.516;2023-04-19T09:27:15;10.90;;;9.57;;
12155;SDS011;6141;49.092;8.516;2023-04-19T09:29:55;9.63;;;8.63;;
12155;SDS011;6141;49.092;8.516;2023-04-19T09:32:25;9.90;;;8.90;;
12155;SDS011;6141;49.092;8.516;2023-04-19T09:34:55;10.07;;;9.07;;
12155;SDS011;6141;49.092;8.516;2023-04-19T09:37:24;10.10;;;9.10;;
12155;SDS011;6141;49.092;8.516;2023-04-19T09:40:22;10.77;;;9.67;;
12155;SDS011;6141;49.092;8.516;2023-04-19T09:42:53;9.87;;;8.30;;
12155;SDS011;6141;49.092;8.516;2023-04-19T09:45:25;9.30;;;8.37;;
12155;SDS011;6141;49.092;8.516;2023-04-19T09:48:00;9.67;;;8.67;;
12155;SDS011;6141;49.092;8.516;2023-04-19T09:50:30;9.20;;;8.00;;
12155;SDS011;6141;49.092;8.516;2023-04-19T09:53:04;9.63;;;8.10;;
12155;SDS011;6141;49.092;8.516;2023-04-19T09:55:33;7.80;;;7.10;;
12155;SDS011;6141;49.092;8.516;2023-04-19T09:58:25;8.20;;;7.30;;
12155;SDS011;6141;49.092;8.516;2023-04-19T10:01:03;9.20;;;7.10;;
12155;SDS011;6141;49.092;8.516;2023-04-19T10:03:43;7.80;;;7.00;;
12155;SDS011;6141;49.092;8.516;2023-04-19T10:06:13;7.40;;;6.70;;
12155;SDS011;6141;49.092;8.516;2023-04-19T10:09:03;8.10;;;7.27;;
12155;SDS011;6141;49.092;8.516;2023-04-19T10:11:32;7.10;;;6.33;;
12155;SDS011;6141;49.092;8.516;2023-04-19T10:14:08;7.83;;;7.13;;
12155;SDS011;6141;49.092;8.516;2023-04-19T10:16:37;8.37;;;7.50;;
12155;SDS011;6141;49.092;8.516;2023-04-19T10:19:07;8.97;;;7.53;;
12155;SDS011;6141;49.092;8.516;2023-04-19T10:21:37;8.80;;;7.87;;
12155;SDS011;6141;49.092;8.516;2023-04-19T10:24:08;8.03;;;7.23;;
12155;SDS011;6141;49.092;8.516;2023-04-19T10:29:55;7.57;;;6.87;;
12155;SDS011;6141;49.092;8.516;2023-04-19T10:32:36;7.70;;;6.90;;
12155;SDS011;6141;49.092;8.516;2023-04-19T10:35:06;8.00;;;7.20;;
12155;SDS011;6141;49.092;8.516;2023-04-19T10:37:38;7.97;;;7.17;;
12155;SDS011;6141;49.092;8.516;2023-04-19T10:40:08;7.70;;;7.00;;
12155;SDS011;6141;49.092;8.516;2023-04-19T10:45:46;8.60;;;7.80;;
12155;SDS011;6141;49.092;8.516;2023-04-19T10:48:30;7.47;;;6.67;;
12155;SDS011;6141;49.092;8.516;2023-04-19T10:51:13;7.17;;;6.00;;
12155;SDS011;6141;49.092;8.516;2023-04-19T10:53:46;8.50;;;6.53;;
12155;SDS011;6141;49.092;8.516;2023-04-19T10:59:24;7.13;;;6.43;;
12155;SDS011;6141;49.092;8.516;2023-04-19T11:01:55;6.93;;;5.90;;
12155;SDS011;6141;49.092;8.516;2023-04-19T11:07:27;6.03;;;5.43;;
12155;SDS011;6141;49.092;8.516;2023-04-19T11:10:02;6.87;;;5.83;;
12155;SDS011;6141;49.092;8.516;2023-04-19T11:12:32;7.43;;;6.73;;
12155;SDS011;6141;49.092;8.516;2023-04-19T11:15:01;7.77;;;7.07;;
12155;SDS011;6141;49.092;8.516;2023-04-19T11:17:31;8.77;;;7.97;;
12155;SDS011;6141;49.092;8.516;2023-04-19T11:20:01;7.00;;;6.30;;
12155;SDS011;6141;49.092;8.516;2023-04-19T11:22:33;8.43;;;6.53;;
12155;SDS011;6141;49.092;8.516;2023-04-19T11:25:04;5.43;;;4.93;;
12155;SDS011;6141;49.092;8.516;2023-04-19T11:27:36;5.80;;;5.00;;
12155;SDS011;6141;49.092;8.516;2023-04-19T11:30:06;5.70;;;4.90;;
12155;SDS011;6141;49.092;8.516;2023-04-19T11:32:39;5.63;;;5.03;;
12155;SDS011;6141;49.092;8.516;2023-04-19T11:35:12;6.13;;;5.53;;
12155;SDS011;6141;49.092;8.516;2023-04-19T11:37:41;6.03;;;5.37;;
12155;SDS011;6141;49.092;8.516;2023-04-19T11:40:13;5.80;;;5.30;;
12155;SDS011;6141;49.092;8.516;2023-04-19T11:42:42;7.53;;;5.77;;
12155;SDS011;6141;49.092;8.516;2023-04-19T11:45:22;6.30;;;5.70;;
12155;SDS011;6141;49.092;8.516;2023-04-19T11:48:00;7.33;;;6.63;;
12155;SDS011;6141;49.092;8.516;2023-04-19T11:50:34;7.53;;;6.83;;
12155;SDS011;6141;49.092;8.516;2023-04-19T11:53:08;7.10;;;6.07;;
12155;SDS011;6141;49.092;8.516;2023-04-19T11:55:40;6.37;;;5.77;;
12155;SDS011;6141;49.092;8.516;2023-04-19T11:58:23;7.17;;;6.57;;
12155;SDS011;6141;49.092;8.516;2023-04-19T12:00:54;5.90;;;5.40;;
12155;SDS011;6141;49.092;8.516;2023-04-19T12:03:25;7.57;;;6.80;;
12155;SDS011;6141;49.092;8.516;2023-04-19T12:06:00;6.80;;;6.20;;
12155;SDS011;6141;49.092;8.516;2023-04-19T12:08:42;7.17;;;6.57;;
12155;SDS011;6141;49.092;8.516;2023-04-19T12:11:21;8.30;;;7.50;;
12155;SDS011;6141;49.092;8.516;2023-04-19T12:14:08;8.57;;;7.43;;
12155;SDS011;6141;49.092;8.516;2023-04-19T12:17:03;8.30;;;7.50;;
12155;SDS011;6141;49.092;8.516;2023-04-19T12:19:53;9.90;;;8.00;;
12155;SDS011;6141;49.092;8.516;2023-04-19T12:22:21;8.27;;;7.47;;
12155;SDS011;6141;49.092;8.516;2023-04-19T12:24:52;8.10;;;7.37;;
12155;SDS011;6141;49.092;8.516;2023-04-19T12:27:21;8.77;;;7.87;;
12155;SDS011;6141;49.092;8.516;2023-04-19T12:29:51;9.13;;;8.10;;
12155;SDS011;6141;49.092;8.516;2023-04-19T12:32:19;9.53;;;8.57;;
12155;SDS011;6141;49.092;8.516;2023-04-19T12:34:49;10.47;;;8.03;;
12155;SDS011;6141;49.092;8.516;2023-04-19T12:37:19;8.87;;;7.97;;
12155;SDS011;6141;49.092;8.516;2023-04-19T12:39:48;8.60;;;7.80;;
12155;SDS011;6141;49.092;8.516;2023-04-19T12:42:17;8.87;;;7.87;;
12155;SDS011;6141;49.092;8.516;2023-04-19T12:44:46;14.53;;;8.47;;
12155;SDS011;6141;49.092;8.516;2023-04-19T12:47:14;9.57;;;8.60;;
12155;SDS011;6141;49.092;8.516;2023-04-19T12:49:43;10.23;;;8.30;;
12155;SDS011;6141;49.092;8.516;2023-04-19T12:52:12;9.53;;;8.17;;
12155;SDS011;6141;49.092;8.516;2023-04-19T12:54:44;8.90;;;8.00;;
12155;SDS011;6141;49.092;8.516;2023-04-19T12:57:13;9.83;;;8.50;;
12155;SDS011;6141;49.092;8.516;2023-04-19T12:59:41;9.80;;;8.80;;
12155;SDS011;6141;49.092;8.516;2023-04-19T13:02:09;12.23;;;10.13;;
12155;SDS011;6141;49.092;8.516;2023-04-19T13:04:38;11.27;;;10.07;;
12155;SDS011;6141;49.092;8.516;2023-04-19T13:07:08;11.60;;;10.40;;
12155;SDS011;6141;49.092;8.516;2023-04-19T13:09:37;11.33;;;10.13;;
12155;SDS011;6141;49.092;8.516;2023-04-19T13:12:07;12.73;;;10.77;;
12155;SDS011;6141;49.092;8.516;2023-04-19T13:14:35;11.73;;;10.60;;
12155;SDS011;6141;49.092;8.516;2023-04-19T13:17:04;12.77;;;11.47;;
12155;SDS011;6141;49.092;8.516;2023-04-19T13:19:33;13.70;;;12.30;;
12155;SDS011;6141;49.092;8.516;2023-04-19T13:22:02;15.23;;;13.27;;
12155;SDS011;6141;49.092;8.516;2023-04-19T13:24:30;16.10;;;13.20;;
12155;SDS011;6141;49.092;8.516;2023-04-19T13:26:59;14.37;;;12.90;;
12155;SDS011;6141;49.092;8.516;2023-04-19T13:29:29;14.23;;;12.87;;
12155;SDS011;6141;49.092;8.516;2023-04-19T13:31:58;14.60;;;13.10;;
12155;SDS011;6141;49.092;8.516;2023-04-19T13:34:26;15.73;;;14.13;;
12155;SDS011;6141;49.092;8.516;2023-04-19T13:36:55;14.70;;;12.83;;
12155;SDS011;6141;49.092;8.516;2023-04-19T13:39:24;15.77;;;14.10;;
12155;SDS011;6141;49.092;8.516;2023-04-19T13:41:52;14.33;;;12.83;;
12155;SDS011;6141;49.092;8.516;2023-04-19T13:44:21;14.40;;;12.90;;
12155;SDS011;6141;49.092;8.516;2023-04-19T13:46:52;13.40;;;11.83;;
12155;SDS011;6141;49.092;8.516;2023-04-19T13:49:20;11.80;;;10.60;;
12155;SDS011;6141;49.092;8.516;2023-04-19T13:51:49;12.30;;;11.03;;
12155;SDS011;6141;49.092;8.516;2023-04-19T13:54:18;11.43;;;10.10;;
12155;SDS011;6141;49.092;8.516;2023-04-19T13:56:47;13.63;;;11.13;;
12155;SDS011;6141;49.092;8.516;2023-04-19T13:59:18;11.17;;;9.33;;
12155;SDS011;6141;49.092;8.516;2023-04-19T14:01:47;9.80;;;8.90;;
12155;SDS011;6141;49.092;8.516;2023-04-19T14:04:17;11.07;;;9.40;;
12155;SDS011;6141;49.092;8.516;2023-04-19T14:06:46;10.67;;;9.57;;
12155;SDS011;6141;49.092;8.516;2023-04-19T14:09:15;11.73;;;8.93;;
12155;SDS011;6141;49.092;8.516;2023-04-19T14:11:44;10.37;;;9.37;;
12155;SDS011;6141;49.092;8.516;2023-04-19T14:14:14;12.07;;;9.10;;
12155;SDS011;6141;49.092;8.516;2023-04-19T14:16:44;9.77;;;8.83;;
12155;SDS011;6141;49.092;8.516;2023-04-19T14:19:14;8.47;;;7.67;;
12155;SDS011;6141;49.092;8.516;2023-04-19T14:21:44;8.57;;;7.13;;
12155;SDS011;6141;49.092;8.516;2023-04-19T14:24:13;8.90;;;8.00;;
12155;SDS011;6141;49.092;8.516;2023-04-19T14:26:41;9.67;;;8.27;;
12155;SDS011;6141;49.092;8.516;2023-04-19T14:29:10;8.70;;;7.80;;
12155;SDS011;6141;49.092;8.516;2023-04-19T14:31:39;9.63;;;8.10;;
12155;SDS011;6141;49.092;8.516;2023-04-19T14:34:07;8.00;;;7.20;;
12155;SDS011;6141;49.092;8.516;2023-04-19T14:36:36;8.00;;;7.20;;
12155;SDS011;6141;49.092;8.516;2023-04-19T14:39:05;7.50;;;6.80;;
12155;SDS011;6141;49.092;8.516;2023-04-19T14:41:35;8.77;;;7.70;;
12155;SDS011;6141;49.092;8.516;2023-04-19T14:44:03;7.77;;;6.97;;
12155;SDS011;6141;49.092;8.516;2023-04-19T14:46:32;9.03;;;8.13;;
12155;SDS011;6141;49.092;8.516;2023-04-19T14:49:01;8.90;;;7.93;;
12155;SDS011;6141;49.092;8.516;2023-04-19T14:51:31;8.63;;;7.67;;
12155;SDS011;6141;49.092;8.516;2023-04-19T14:54:00;8.37;;;7.47;;
12155;SDS011;6141;49.092;8.516;2023-04-19T14:56:29;9.10;;;8.20;;
12155;SDS011;6141;49.092;8.516;2023-04-19T14:58:58;8.50;;;7.70;;
12155;SDS011;6141;49.092;8.516;2023-04-19T15:01:28;8.80;;;7.90;;
12155;SDS011;6141;49.092;8.516;2023-04-19T15:03:58;9.43;;;7.60;;
12155;SDS011;6141;49.092;8.516;2023-04-19T15:06:26;10.40;;;7.53;;
12155;SDS011;6141;49.092;8.516;2023-04-19T15:08:55;7.67;;;6.87;;
12155;SDS011;6141;49.092;8.516;2023-04-19T15:11:23;7.77;;;6.90;;
12155;SDS011;6141;49.092;8.516;2023-04-19T15:13:53;7.83;;;6.97;;
12155;SDS011;6141;49.092;8.516;2023-04-19T15:16:22;8.07;;;7.20;;
12155;SDS011;6141;49.092;8.516;2023-04-19T15:18:51;7.53;;;6.40;;
12155;SDS011;6141;49.092;8.516;2023-04-19T15:21:19;8.80;;;7.20;;
12155;SDS011;6141;49.092;8.516;2023-04-19T15:23:50;7.83;;;7.13;;
12155;SDS011;6141;49.092;8.516;2023-04-19T15:26:18;10.03;;;6.70;;
12155;SDS011;6141;49.092;8.516;2023-04-19T15:28:47;7.53;;;6.23;;
12155;SDS011;6141;49.092;8.516;2023-04-19T15:31:17;7.47;;;6.77;;
12155;SDS011;6141;49.092;8.516;2023-04-19T15:33:47;6.80;;;6.07;;
12155;SDS011;6141;49.092;8.516;2023-04-19T15:36:15;7.30;;;6.60;;